首页
METAR-TAF:

METAR-TAF

机场 :

Wunstorf, 德国

纬度: 52-27N, 经度: 009-26E, 海拔: 57米

当前天气观测

该预报发布于45分钟前的18:20 UTC
风速12节,风向西转西南
温度 7°C
湿度 70%
气压 1017 hPa
能见度10公里或以上
少量云层高于3000英尺
多云层高于6000英尺

METAR: ETNW 181820Z 25012KT 9999 FEW030 BKN060 07/02 Q1017 BLU BLU

时间: 20:05 (19:05 UTC)

预报

该预报发布于1小时和45分钟前的17:20 UTC
预报有效从18日的 18点(UTC)到 19日的 18点(UTC)
风速15节,风向西转西南,有时为25节阵风
能见度10公里或以上
多云层高于3000英尺
短暂存在
从 18日的 23点(UTC)到 19日的 05点(UTC)
风速15节,风向西转西南,有时为30节阵风
能見度: 4000
多云层高于800英尺
多云层高于1500英尺
成为
从 19日的 05点(UTC)到 19日的 07点(UTC)
风速15节,风向西,有时为25节阵风
能见度10公里或以上
散云层高于1500英尺
短暂存在
从 19日的 05点(UTC)到 19日的 18点(UTC)
风速18节,风向西转西北,有时为32节阵风
能見度: 4000
多云层高于1000英尺
多云层高于1500英尺, 积雨云.
阵雨

TAF: ETNW 181720Z 1818/1918 24015G25KT 9999 NSW BKN030 TEMPO 1823/1905 25015G30KT 4000 RA BKN008 BKN015 BECMG 1905/1907 27015G25KT 9999 NSW SCT015 TEMPO 1905/1918 29018G32KT 4000 SHRA BKN010 BKN015CB BY ETGL

超过4000个机场的气象观测和天气预报(METAR&TAF报告)。

可查询的气象台以黄色和红色小点在地图上表示。

将鼠标移到小点上方,可查看气象台名称。

然后点击查看天气观测和预报。

如需切换地图:点击带黑十字的绿色按钮放大地图;点击带横线的绿色按钮缩小地图;或者点击绿色箭头查看邻近地区的地图。


METAR-TAF: